KONT/ONT METAR and TAF weather

Enter ICAO airport designator
Station Type Date Time Source
KONT METAR 2020/04/05 16:53 UTC NOAA

KONT 051653Z VRB03KT 10SM SCT020 SCT040 OVC055 13/08 A2992 RMK AO2 SLP127 T01330083


Station Type Date Time Source
KONT Decoded METAR 2020/04/05 16:53 UTC NOAA

ONTARIO INTERNATIONAL AIRPORT, CA, United States (KONT) 34-03N 117-35W 275M
Apr 05, 2020 - 12:53 PM EDT / 2020.04.05 1653 UTC
Wind: Variable at 3 MPH (3 KT):0
Visibility: 10 mile(s):0
Sky conditions: overcast
Temperature: 55.9 F (13.3 C)
Dew Point: 46.9 F (8.3 C)
Relative Humidity: 71%
Pressure (altimeter): 29.92 in. Hg (1013 hPa)
ob: KONT 051653Z VRB03KT 10SM SCT020 SCT040 OVC055 13/08 A2992 RMK AO2 SLP127 T01330083
cycle: 17

Station Type Date Time Source
KONT TAF 2020/04/05 18:21 UTC NOAA

TAF KONT 051720Z 0518/0624 26007KT P6SM SCT025 BKN050
FM052000 25011G17KT P6SM BKN030 OVC050
FM060300 26013G20KT P6SM -SHRA BKN020 OVC035
FM061300 24010KT 6SM -RA BKN025 OVC035
FM062000 25007KT P6SM -SHRA BKN030 OVC040

Example: see airport list